KRP702 LGSK-LRTR
Flight info
| Callsign | KRP702 |
|---|---|
| Flight time | 1h 17m |
| Altitude | 37000 |
| Route | TSL UM987 MICPO UL863 EVIVI Y94 OGOTA T228 UTEKA L610 DONIV N188 MAVIT |
| Aircraft | A319/M-SDE3FGHIRWY/LB1 |
Departure
| Time | 2026-04-25 07:46 |
|---|---|
| Airport | Skiathos Island National Airport (LGSK) |
Arrival
| Time | 2026-04-25 09:03 |
|---|---|
| Airport | Timișoara Traian Vuia International Airport (LRTR) |
| Time | Latitude | Longitude | Altitude | Speed | Heading |
|---|---|---|---|---|---|
| 2026-04-25 07:32 | 39.17912 | 23.50227 | 65 ft | 0 kts | 289° |
| 2026-04-25 07:38 | 39.17909 | 23.50237 | 65 ft | 2 kts | 288° |
| 2026-04-25 07:38 | 39.17904 | 23.50258 | 58 ft | 2 kts | 289° |
| 2026-04-25 07:39 | 39.17900 | 23.50271 | 56 ft | 2 kts | 289° |
| 2026-04-25 07:39 | 39.17896 | 23.50292 | 60 ft | 2 kts | 255° |
| 2026-04-25 07:39 | 39.17904 | 23.50310 | 56 ft | 2 kts | 215° |
| 2026-04-25 07:39 | 39.17914 | 23.50319 | 58 ft | 1 kts | 200° |
| 2026-04-25 07:40 | 39.17915 | 23.50319 | 58 ft | 0 kts | 199° |
| 2026-04-25 07:41 | 39.17907 | 23.50314 | 56 ft | 3 kts | 205° |
| 2026-04-25 07:42 | 39.17872 | 23.50300 | 59 ft | 7 kts | 199° |
| 2026-04-25 07:42 | 39.17811 | 23.50273 | 61 ft | 11 kts | 199° |
| 2026-04-25 07:42 | 39.17726 | 23.50248 | 59 ft | 11 kts | 157° |
| 2026-04-25 07:42 | 39.17698 | 23.50323 | 61 ft | 9 kts | 116° |
| 2026-04-25 07:43 | 39.17644 | 23.50336 | 60 ft | 11 kts | 197° |
| 2026-04-25 07:43 | 39.17547 | 23.50294 | 53 ft | 17 kts | 199° |
| 2026-04-25 07:43 | 39.17419 | 23.50236 | 46 ft | 22 kts | 199° |
| 2026-04-25 07:43 | 39.17256 | 23.50164 | 33 ft | 28 kts | 199° |
| 2026-04-25 07:44 | 39.17110 | 23.50098 | 23 ft | 13 kts | 199° |
| 2026-04-25 07:44 | 39.17014 | 23.50076 | 18 ft | 10 kts | 229° |
| 2026-04-25 07:44 | 39.17033 | 23.50056 | 20 ft | 1 kts | 33° |
| 2026-04-25 07:44 | 39.17036 | 23.50061 | 21 ft | 0 kts | 45° |
| 2026-04-25 07:45 | 39.17044 | 23.50068 | 19 ft | 4 kts | 34° |
| 2026-04-25 07:45 | 39.17062 | 23.50077 | 20 ft | 0 kts | 20° |
| 2026-04-25 07:45 | 39.17088 | 23.50090 | 22 ft | 27 kts | 20° |
| 2026-04-25 07:46 | 39.17550 | 23.50297 | 53 ft | 110 kts | 19° |
| 2026-04-25 07:46 | 39.18437 | 23.50693 | 405 ft | 140 kts | 18° |
| 2026-04-25 07:46 | 39.19359 | 23.51098 | 1212 ft | 140 kts | 19° |
| 2026-04-25 07:46 | 39.20294 | 23.51499 | 1907 ft | 147 kts | 19° |
| 2026-04-25 07:47 | 39.21338 | 23.51936 | 2242 ft | 169 kts | 19° |
| 2026-04-25 07:47 | 39.22534 | 23.52434 | 2575 ft | 193 kts | 18° |
| 2026-04-25 07:47 | 39.23896 | 23.52996 | 3018 ft | 217 kts | 18° |
| 2026-04-25 07:47 | 39.25416 | 23.53615 | 3528 ft | 241 kts | 18° |
| 2026-04-25 07:48 | 39.27092 | 23.54097 | 4286 ft | 254 kts | 4° |
| 2026-04-25 07:48 | 39.28877 | 23.54067 | 5269 ft | 258 kts | 1° |
| 2026-04-25 07:48 | 39.30686 | 23.54004 | 6254 ft | 262 kts | 1° |
| 2026-04-25 07:48 | 39.32529 | 23.53935 | 7144 ft | 267 kts | 1° |
| 2026-04-25 07:49 | 39.34405 | 23.53859 | 8035 ft | 272 kts | 1° |
| 2026-04-25 07:49 | 39.36314 | 23.53781 | 8929 ft | 277 kts | 1° |
| 2026-04-25 07:49 | 39.38256 | 23.53700 | 9827 ft | 282 kts | 1° |
| 2026-04-25 07:49 | 39.40252 | 23.53619 | 10404 ft | 297 kts | 0° |
| 2026-04-25 07:50 | 39.42396 | 23.53538 | 10789 ft | 317 kts | 0° |
| 2026-04-25 07:50 | 39.44633 | 23.53451 | 11478 ft | 325 kts | 0° |
| 2026-04-25 07:50 | 39.46912 | 23.53357 | 12275 ft | 330 kts | 0° |
| 2026-04-25 07:50 | 39.49218 | 23.53264 | 13063 ft | 334 kts | 360° |
| 2026-04-25 07:51 | 39.51552 | 23.53173 | 13853 ft | 338 kts | 360° |
| 2026-04-25 07:51 | 39.53917 | 23.53082 | 14545 ft | 342 kts | 360° |
| 2026-04-25 07:51 | 39.56307 | 23.52990 | 15226 ft | 346 kts | 0° |
| 2026-04-25 07:51 | 39.58726 | 23.52897 | 15902 ft | 349 kts | 0° |
| 2026-04-25 07:52 | 39.61171 | 23.52799 | 16577 ft | 353 kts | 0° |
| 2026-04-25 07:52 | 39.63639 | 23.52697 | 17252 ft | 357 kts | 0° |
| 2026-04-25 07:52 | 39.66131 | 23.52596 | 17921 ft | 361 kts | 0° |
| 2026-04-25 07:52 | 39.68655 | 23.52498 | 18554 ft | 365 kts | 0° |
| 2026-04-25 07:53 | 39.71207 | 23.52397 | 19133 ft | 368 kts | 0° |
| 2026-04-25 07:53 | 39.73773 | 23.52293 | 19739 ft | 371 kts | 0° |
| 2026-04-25 07:53 | 39.76361 | 23.52190 | 20343 ft | 374 kts | 1° |
| 2026-04-25 07:53 | 39.78972 | 23.52088 | 20953 ft | 377 kts | 1° |
| 2026-04-25 07:54 | 39.81599 | 23.51985 | 21552 ft | 379 kts | 1° |
| 2026-04-25 07:54 | 39.84249 | 23.51879 | 22143 ft | 382 kts | 1° |
| 2026-04-25 07:54 | 39.86918 | 23.51773 | 22728 ft | 385 kts | 1° |
| 2026-04-25 07:54 | 39.89611 | 23.51670 | 23308 ft | 388 kts | 1° |
| 2026-04-25 07:55 | 39.92322 | 23.51567 | 23841 ft | 391 kts | 1° |
| 2026-04-25 07:55 | 39.95050 | 23.51458 | 24318 ft | 394 kts | 1° |
| 2026-04-25 07:55 | 39.97800 | 23.51345 | 24793 ft | 396 kts | 1° |
| 2026-04-25 07:55 | 39.99621 | 23.51272 | 25112 ft | 398 kts | 1° |
| 2026-04-25 07:56 | 40.02763 | 23.51148 | 25651 ft | 400 kts | 1° |
| 2026-04-25 07:56 | 40.05556 | 23.51040 | 26104 ft | 402 kts | 1° |
| 2026-04-25 07:56 | 40.08363 | 23.50931 | 26555 ft | 405 kts | 1° |
| 2026-04-25 07:56 | 40.11181 | 23.50819 | 26998 ft | 407 kts | 1° |
| 2026-04-25 07:57 | 40.14016 | 23.50704 | 27431 ft | 409 kts | 1° |
| 2026-04-25 07:57 | 40.16856 | 23.50588 | 27864 ft | 411 kts | 1° |
| 2026-04-25 07:57 | 40.19738 | 23.50468 | 28298 ft | 413 kts | 1° |
| 2026-04-25 07:57 | 40.22620 | 23.50352 | 28728 ft | 416 kts | 1° |
| 2026-04-25 07:58 | 40.25518 | 23.50237 | 29146 ft | 418 kts | 1° |
| 2026-04-25 07:58 | 40.28436 | 23.50122 | 29576 ft | 420 kts | 1° |
| 2026-04-25 07:58 | 40.31240 | 23.50009 | 29970 ft | 422 kts | 1° |
| 2026-04-25 07:58 | 40.34184 | 23.49894 | 30341 ft | 424 kts | 1° |
| 2026-04-25 07:59 | 40.37143 | 23.49778 | 30692 ft | 426 kts | 1° |
| 2026-04-25 07:59 | 40.40116 | 23.49656 | 31029 ft | 428 kts | 1° |
| 2026-04-25 07:59 | 40.43100 | 23.49534 | 31359 ft | 430 kts | 0° |
| 2026-04-25 07:59 | 40.46096 | 23.49411 | 31699 ft | 432 kts | 0° |
| 2026-04-25 08:00 | 40.49089 | 23.49290 | 32163 ft | 430 kts | 0° |
| 2026-04-25 08:00 | 40.52077 | 23.49168 | 32645 ft | 428 kts | 0° |
| 2026-04-25 08:00 | 40.55048 | 23.49045 | 33118 ft | 426 kts | 0° |
| 2026-04-25 08:00 | 40.58004 | 23.48926 | 33594 ft | 425 kts | 0° |
| 2026-04-25 08:01 | 40.60953 | 23.48810 | 34065 ft | 423 kts | 0° |
| 2026-04-25 08:01 | 40.63887 | 23.48694 | 34472 ft | 422 kts | 0° |
| 2026-04-25 08:01 | 40.66814 | 23.48579 | 34851 ft | 421 kts | 1° |
| 2026-04-25 08:01 | 40.69739 | 23.48461 | 35205 ft | 420 kts | 1° |
| 2026-04-25 08:02 | 40.72652 | 23.48340 | 35572 ft | 419 kts | 0° |
| 2026-04-25 08:02 | 40.75557 | 23.48219 | 35926 ft | 418 kts | 1° |
| 2026-04-25 08:02 | 40.78462 | 23.48101 | 36272 ft | 417 kts | 1° |
| 2026-04-25 08:02 | 40.81358 | 23.47987 | 36616 ft | 416 kts | 1° |
| 2026-04-25 08:03 | 40.84243 | 23.47870 | 36925 ft | 415 kts | 1° |
| 2026-04-25 08:03 | 40.87132 | 23.47749 | 37065 ft | 414 kts | 1° |
| 2026-04-25 08:03 | 40.92848 | 23.47514 | 37085 ft | 409 kts | 1° |
| 2026-04-25 08:04 | 40.98528 | 23.47284 | 37089 ft | 408 kts | 1° |
| 2026-04-25 08:04 | 41.04201 | 23.47040 | 37088 ft | 407 kts | 0° |
| 2026-04-25 08:05 | 41.09832 | 23.46798 | 37086 ft | 407 kts | 0° |
| 2026-04-25 08:05 | 41.15491 | 23.46572 | 37089 ft | 407 kts | 0° |
| 2026-04-25 08:06 | 41.21147 | 23.46350 | 37090 ft | 407 kts | 1° |
| 2026-04-25 08:06 | 41.26802 | 23.46122 | 37089 ft | 406 kts | 0° |
| 2026-04-25 08:07 | 41.32451 | 23.45885 | 37087 ft | 406 kts | 0° |
| 2026-04-25 08:07 | 41.38095 | 23.45653 | 37090 ft | 406 kts | 0° |
| 2026-04-25 08:08 | 41.43737 | 23.45403 | 37094 ft | 405 kts | 0° |
| 2026-04-25 08:08 | 41.49371 | 23.45107 | 37101 ft | 405 kts | 360° |
| 2026-04-25 08:09 | 41.55000 | 23.44817 | 37088 ft | 405 kts | 360° |
| 2026-04-25 08:09 | 41.60625 | 23.44527 | 37086 ft | 404 kts | 360° |
| 2026-04-25 08:10 | 41.66245 | 23.44249 | 37093 ft | 404 kts | 0° |
| 2026-04-25 08:10 | 41.71858 | 23.43971 | 37102 ft | 404 kts | 360° |
| 2026-04-25 08:11 | 41.77471 | 23.43686 | 37098 ft | 404 kts | 360° |
| 2026-04-25 08:11 | 41.83081 | 23.43390 | 37097 ft | 403 kts | 360° |
| 2026-04-25 08:12 | 41.88688 | 23.43097 | 37086 ft | 403 kts | 360° |
| 2026-04-25 08:12 | 41.94288 | 23.42823 | 37095 ft | 402 kts | 360° |
| 2026-04-25 08:13 | 41.99879 | 23.42553 | 37087 ft | 402 kts | 360° |
| 2026-04-25 08:14 | 42.08269 | 23.42129 | 37096 ft | 402 kts | 359° |
| 2026-04-25 08:14 | 42.13850 | 23.41834 | 37102 ft | 401 kts | 359° |
| 2026-04-25 08:15 | 42.19437 | 23.41534 | 37099 ft | 401 kts | 359° |
| 2026-04-25 08:15 | 42.25015 | 23.41247 | 37087 ft | 401 kts | 359° |
| 2026-04-25 08:16 | 42.30589 | 23.40963 | 37085 ft | 401 kts | 359° |
| 2026-04-25 08:16 | 42.36167 | 23.40667 | 37086 ft | 401 kts | 359° |
| 2026-04-25 08:17 | 42.41739 | 23.40383 | 37093 ft | 401 kts | 359° |
| 2026-04-25 08:17 | 42.47315 | 23.40098 | 37091 ft | 401 kts | 359° |
| 2026-04-25 08:18 | 42.51986 | 23.39860 | 37096 ft | 401 kts | 359° |
| 2026-04-25 08:18 | 42.57562 | 23.39573 | 37104 ft | 401 kts | 359° |
| 2026-04-25 08:19 | 42.63142 | 23.39286 | 37099 ft | 401 kts | 359° |
| 2026-04-25 08:19 | 42.68717 | 23.38993 | 37098 ft | 401 kts | 359° |
| 2026-04-25 08:20 | 42.74288 | 23.38531 | 37100 ft | 401 kts | 356° |
| 2026-04-25 08:20 | 42.79845 | 23.37799 | 37106 ft | 401 kts | 355° |
| 2026-04-25 08:21 | 42.85402 | 23.37051 | 37097 ft | 401 kts | 356° |
| 2026-04-25 08:21 | 42.90965 | 23.36356 | 37098 ft | 401 kts | 356° |
| 2026-04-25 08:22 | 42.96527 | 23.35691 | 37086 ft | 401 kts | 356° |
| 2026-04-25 08:22 | 43.02085 | 23.35029 | 37082 ft | 401 kts | 356° |
| 2026-04-25 08:23 | 43.07640 | 23.34353 | 37077 ft | 401 kts | 356° |
| 2026-04-25 08:23 | 43.13193 | 23.33669 | 37081 ft | 401 kts | 356° |
| 2026-04-25 08:24 | 43.18717 | 23.32691 | 37084 ft | 402 kts | 346° |
| 2026-04-25 08:24 | 43.21337 | 23.31352 | 37076 ft | 404 kts | 335° |
| 2026-04-25 08:24 | 43.23747 | 23.29354 | 37075 ft | 406 kts | 325° |
| 2026-04-25 08:25 | 43.27925 | 23.24082 | 37068 ft | 409 kts | 319° |
| 2026-04-25 08:25 | 43.32022 | 23.18664 | 37079 ft | 409 kts | 319° |
| 2026-04-25 08:26 | 43.36117 | 23.13243 | 37075 ft | 409 kts | 319° |
| 2026-04-25 08:26 | 43.40211 | 23.07811 | 37081 ft | 409 kts | 319° |
| 2026-04-25 08:27 | 43.44298 | 23.02375 | 37074 ft | 408 kts | 319° |
| 2026-04-25 08:27 | 43.48378 | 22.96939 | 37083 ft | 408 kts | 319° |
| 2026-04-25 08:28 | 43.52458 | 22.91501 | 37083 ft | 408 kts | 319° |
| 2026-04-25 08:28 | 43.56530 | 22.86055 | 37082 ft | 408 kts | 319° |
| 2026-04-25 08:29 | 43.60595 | 22.80609 | 37083 ft | 407 kts | 319° |
| 2026-04-25 08:29 | 43.64655 | 22.75158 | 37085 ft | 407 kts | 319° |
| 2026-04-25 08:30 | 43.68712 | 22.69709 | 37084 ft | 407 kts | 319° |
| 2026-04-25 08:30 | 43.72761 | 22.64254 | 37085 ft | 406 kts | 318° |
| 2026-04-25 08:31 | 43.76799 | 22.58791 | 37088 ft | 406 kts | 318° |
| 2026-04-25 08:31 | 43.80832 | 22.53340 | 37086 ft | 405 kts | 318° |
| 2026-04-25 08:32 | 43.84864 | 22.47877 | 37087 ft | 405 kts | 318° |
| 2026-04-25 08:32 | 43.88885 | 22.42411 | 37082 ft | 405 kts | 318° |
| 2026-04-25 08:33 | 43.92889 | 22.36926 | 37082 ft | 405 kts | 317° |
| 2026-04-25 08:33 | 43.96813 | 22.31320 | 37082 ft | 405 kts | 316° |
| 2026-04-25 08:34 | 44.00705 | 22.25667 | 37083 ft | 405 kts | 316° |
| 2026-04-25 08:34 | 44.04604 | 22.20029 | 37082 ft | 404 kts | 316° |
| 2026-04-25 08:35 | 44.08506 | 22.14408 | 37081 ft | 404 kts | 316° |
| 2026-04-25 08:35 | 44.12407 | 22.08785 | 37081 ft | 404 kts | 316° |
| 2026-04-25 08:36 | 44.16300 | 22.03164 | 37080 ft | 403 kts | 316° |
| 2026-04-25 08:36 | 44.20210 | 21.97495 | 37083 ft | 403 kts | 316° |
| 2026-04-25 08:37 | 44.24079 | 21.91856 | 37078 ft | 402 kts | 316° |
| 2026-04-25 08:37 | 44.27953 | 21.86219 | 37078 ft | 402 kts | 316° |
| 2026-04-25 08:38 | 44.31826 | 21.80579 | 37079 ft | 402 kts | 316° |
| 2026-04-25 08:38 | 44.35698 | 21.74930 | 37079 ft | 402 kts | 316° |
| 2026-04-25 08:39 | 44.39563 | 21.69262 | 36811 ft | 403 kts | 315° |
| 2026-04-25 08:39 | 44.41490 | 21.66429 | 36513 ft | 399 kts | 315° |
| 2026-04-25 08:39 | 44.43396 | 21.63626 | 36052 ft | 396 kts | 315° |
| 2026-04-25 08:39 | 44.45284 | 21.60851 | 35600 ft | 392 kts | 315° |
| 2026-04-25 08:40 | 44.47160 | 21.58096 | 35140 ft | 389 kts | 315° |
| 2026-04-25 08:40 | 44.49020 | 21.55358 | 34679 ft | 387 kts | 315° |
| 2026-04-25 08:40 | 44.50855 | 21.52653 | 34230 ft | 384 kts | 315° |
| 2026-04-25 08:40 | 44.52688 | 21.49949 | 33740 ft | 382 kts | 315° |
| 2026-04-25 08:41 | 44.54510 | 21.47256 | 33281 ft | 378 kts | 315° |
| 2026-04-25 08:41 | 44.56311 | 21.44594 | 32841 ft | 375 kts | 315° |
| 2026-04-25 08:41 | 44.58098 | 21.41953 | 32401 ft | 372 kts | 315° |
| 2026-04-25 08:41 | 44.59871 | 21.39328 | 31966 ft | 369 kts | 315° |
| 2026-04-25 08:42 | 44.61627 | 21.36721 | 31536 ft | 367 kts | 315° |
| 2026-04-25 08:42 | 44.63372 | 21.34128 | 31115 ft | 364 kts | 315° |
| 2026-04-25 08:42 | 44.65110 | 21.31547 | 30696 ft | 363 kts | 315° |
| 2026-04-25 08:42 | 44.66838 | 21.28974 | 30286 ft | 361 kts | 315° |
| 2026-04-25 08:43 | 44.68555 | 21.26411 | 29845 ft | 360 kts | 315° |
| 2026-04-25 08:43 | 44.70263 | 21.23862 | 29441 ft | 356 kts | 315° |
| 2026-04-25 08:43 | 44.72001 | 21.21414 | 29052 ft | 352 kts | 322° |
| 2026-04-25 08:43 | 44.74040 | 21.19571 | 28677 ft | 347 kts | 335° |
| 2026-04-25 08:44 | 44.76307 | 21.18490 | 28273 ft | 344 kts | 348° |
| 2026-04-25 08:44 | 44.78677 | 21.18207 | 27863 ft | 342 kts | 1° |
| 2026-04-25 08:44 | 44.81025 | 21.18683 | 27449 ft | 341 kts | 9° |
| 2026-04-25 08:44 | 44.83343 | 21.19335 | 27026 ft | 339 kts | 9° |
| 2026-04-25 08:45 | 44.85646 | 21.19981 | 26614 ft | 336 kts | 9° |
| 2026-04-25 08:45 | 44.87935 | 21.20625 | 26185 ft | 334 kts | 9° |
| 2026-04-25 08:45 | 44.90212 | 21.21265 | 25759 ft | 333 kts | 9° |
| 2026-04-25 08:45 | 44.92479 | 21.21902 | 25323 ft | 332 kts | 9° |
| 2026-04-25 08:46 | 44.94742 | 21.22539 | 24878 ft | 331 kts | 9° |
| 2026-04-25 08:46 | 44.97003 | 21.23176 | 24436 ft | 331 kts | 9° |
| 2026-04-25 08:46 | 44.99262 | 21.23812 | 23979 ft | 331 kts | 9° |
| 2026-04-25 08:46 | 45.01524 | 21.24453 | 23502 ft | 332 kts | 9° |
| 2026-04-25 08:47 | 45.03784 | 21.25093 | 23014 ft | 331 kts | 9° |
| 2026-04-25 08:47 | 45.06033 | 21.25729 | 22562 ft | 329 kts | 9° |
| 2026-04-25 08:47 | 45.08276 | 21.26364 | 22120 ft | 328 kts | 9° |
| 2026-04-25 08:47 | 45.10506 | 21.26997 | 21680 ft | 327 kts | 9° |
| 2026-04-25 08:48 | 45.12731 | 21.27631 | 21246 ft | 326 kts | 9° |
| 2026-04-25 08:48 | 45.14952 | 21.28262 | 20812 ft | 325 kts | 9° |
| 2026-04-25 08:48 | 45.17169 | 21.28893 | 20383 ft | 324 kts | 9° |
| 2026-04-25 08:48 | 45.19381 | 21.29521 | 19956 ft | 324 kts | 9° |
| 2026-04-25 08:49 | 45.21592 | 21.30149 | 19529 ft | 324 kts | 9° |
| 2026-04-25 08:49 | 45.23806 | 21.30731 | 19121 ft | 323 kts | 4° |
| 2026-04-25 08:49 | 45.26038 | 21.30833 | 18714 ft | 321 kts | 358° |
| 2026-04-25 08:49 | 45.28267 | 21.30818 | 18306 ft | 320 kts | 357° |
| 2026-04-25 08:50 | 45.30491 | 21.30803 | 17883 ft | 319 kts | 358° |
| 2026-04-25 08:50 | 45.32706 | 21.30789 | 17476 ft | 317 kts | 358° |
| 2026-04-25 08:50 | 45.34904 | 21.30776 | 17089 ft | 315 kts | 358° |
| 2026-04-25 08:50 | 45.37091 | 21.30766 | 16700 ft | 314 kts | 358° |
| 2026-04-25 08:51 | 45.39268 | 21.30757 | 16319 ft | 312 kts | 358° |
| 2026-04-25 08:51 | 45.41439 | 21.30750 | 15941 ft | 311 kts | 358° |
| 2026-04-25 08:51 | 45.43600 | 21.30742 | 15565 ft | 310 kts | 358° |
| 2026-04-25 08:51 | 45.45753 | 21.30728 | 15181 ft | 309 kts | 358° |
| 2026-04-25 08:52 | 45.47899 | 21.30713 | 14818 ft | 308 kts | 358° |
| 2026-04-25 08:52 | 45.50041 | 21.30701 | 14437 ft | 308 kts | 358° |
| 2026-04-25 08:52 | 45.52183 | 21.30689 | 14059 ft | 308 kts | 358° |
| 2026-04-25 08:52 | 45.54321 | 21.30678 | 13659 ft | 307 kts | 358° |
| 2026-04-25 08:53 | 45.56443 | 21.30670 | 13423 ft | 301 kts | 358° |
| 2026-04-25 08:53 | 45.58505 | 21.30664 | 13287 ft | 292 kts | 358° |
| 2026-04-25 08:53 | 45.60505 | 21.30657 | 13152 ft | 283 kts | 358° |
| 2026-04-25 08:53 | 45.62442 | 21.30647 | 13013 ft | 274 kts | 358° |
| 2026-04-25 08:54 | 45.64321 | 21.30636 | 12595 ft | 268 kts | 357° |
| 2026-04-25 08:54 | 45.66183 | 21.30624 | 12113 ft | 266 kts | 358° |
| 2026-04-25 08:54 | 45.68024 | 21.30610 | 11614 ft | 263 kts | 356° |
| 2026-04-25 08:54 | 45.69214 | 21.30385 | 11289 ft | 259 kts | 342° |
| 2026-04-25 08:55 | 45.71240 | 21.28674 | 10633 ft | 254 kts | 313° |
| 2026-04-25 08:55 | 45.71945 | 21.27298 | 10293 ft | 254 kts | 299° |
| 2026-04-25 08:55 | 45.72584 | 21.24971 | 9777 ft | 254 kts | 291° |
| 2026-04-25 08:55 | 45.73169 | 21.22608 | 9281 ft | 250 kts | 291° |
| 2026-04-25 08:56 | 45.73750 | 21.20277 | 8795 ft | 247 kts | 291° |
| 2026-04-25 08:56 | 45.74326 | 21.17973 | 8378 ft | 246 kts | 291° |
| 2026-04-25 08:56 | 45.74903 | 21.15662 | 7972 ft | 247 kts | 290° |
| 2026-04-25 08:56 | 45.75478 | 21.13352 | 7624 ft | 245 kts | 290° |
| 2026-04-25 08:57 | 45.76050 | 21.11052 | 7285 ft | 244 kts | 290° |
| 2026-04-25 08:57 | 45.76617 | 21.08774 | 6795 ft | 241 kts | 289° |
| 2026-04-25 08:57 | 45.77188 | 21.06491 | 6249 ft | 240 kts | 289° |
| 2026-04-25 08:57 | 45.77770 | 21.04262 | 5694 ft | 238 kts | 295° |
| 2026-04-25 08:58 | 45.78807 | 21.02438 | 5174 ft | 239 kts | 322° |
| 2026-04-25 08:58 | 45.80328 | 21.01517 | 4634 ft | 242 kts | 349° |
| 2026-04-25 08:58 | 45.81986 | 21.01740 | 4136 ft | 247 kts | 18° |
| 2026-04-25 08:58 | 45.83394 | 21.03116 | 4033 ft | 241 kts | 43° |
| 2026-04-25 08:59 | 45.84541 | 21.04818 | 3953 ft | 233 kts | 44° |
| 2026-04-25 08:59 | 45.85649 | 21.06471 | 3836 ft | 227 kts | 44° |
| 2026-04-25 08:59 | 45.86535 | 21.08270 | 3707 ft | 224 kts | 68° |
| 2026-04-25 08:59 | 45.86733 | 21.10491 | 3426 ft | 225 kts | 99° |
| 2026-04-25 09:00 | 45.86277 | 21.12613 | 3144 ft | 227 kts | 112° |
| 2026-04-25 09:00 | 45.85729 | 21.14785 | 2808 ft | 228 kts | 112° |
| 2026-04-25 09:00 | 45.85206 | 21.16882 | 2556 ft | 222 kts | 111° |
| 2026-04-25 09:00 | 45.84689 | 21.18958 | 2239 ft | 214 kts | 111° |
| 2026-04-25 09:01 | 45.84206 | 21.20901 | 1947 ft | 199 kts | 111° |
| 2026-04-25 09:01 | 45.83760 | 21.22691 | 1712 ft | 182 kts | 111° |
| 2026-04-25 09:01 | 45.83360 | 21.24296 | 1470 ft | 162 kts | 112° |
| 2026-04-25 09:01 | 45.82995 | 21.25757 | 1255 ft | 150 kts | 112° |
| 2026-04-25 09:02 | 45.82659 | 21.27102 | 1063 ft | 140 kts | 114° |
| 2026-04-25 09:02 | 45.82334 | 21.28400 | 882 ft | 134 kts | 114° |
| 2026-04-25 09:02 | 45.82029 | 21.29615 | 692 ft | 130 kts | 114° |
| 2026-04-25 09:02 | 45.81731 | 21.30848 | 525 ft | 129 kts | 113° |
| 2026-04-25 09:03 | 45.81424 | 21.32049 | 368 ft | 127 kts | 114° |
| 2026-04-25 09:03 | 45.81155 | 21.33094 | 352 ft | 91 kts | 110° |
| 2026-04-25 09:03 | 45.81045 | 21.33537 | 348 ft | 17 kts | 113° |
| 2026-04-25 09:03 | 45.80949 | 21.33557 | 343 ft | 16 kts | 199° |
| 2026-04-25 09:04 | 45.80865 | 21.33472 | 344 ft | 15 kts | 252° |
| 2026-04-25 09:04 | 45.80889 | 21.33321 | 349 ft | 16 kts | 290° |
| 2026-04-25 09:04 | 45.80928 | 21.33165 | 351 ft | 17 kts | 289° |
| 2026-04-25 09:04 | 45.80969 | 21.33002 | 342 ft | 18 kts | 290° |
| 2026-04-25 09:05 | 45.81011 | 21.32833 | 342 ft | 18 kts | 290° |
| 2026-04-25 09:05 | 45.81055 | 21.32658 | 346 ft | 19 kts | 290° |
| 2026-04-25 09:05 | 45.81089 | 21.32520 | 344 ft | 1 kts | 289° |
| 2026-04-25 09:05 | 45.81093 | 21.32501 | 343 ft | 6 kts | 279° |
| 2026-04-25 09:06 | 45.81061 | 21.32453 | 342 ft | 8 kts | 201° |
| 2026-04-25 09:06 | 45.81055 | 21.32388 | 346 ft | 8 kts | 290° |
| 2026-04-25 09:06 | 45.81075 | 21.32311 | 346 ft | 9 kts | 290° |
| 2026-04-25 09:06 | 45.81096 | 21.32226 | 342 ft | 9 kts | 290° |
| 2026-04-25 09:07 | 45.81120 | 21.32133 | 345 ft | 9 kts | 290° |
| 2026-04-25 09:07 | 45.81114 | 21.32099 | 344 ft | 3 kts | 221° |
| 2026-04-25 09:07 | 45.81090 | 21.32087 | 342 ft | 4 kts | 200° |
| 2026-04-25 09:07 | 45.81076 | 21.32079 | 342 ft | 0 kts | 200° |